Terminal Aerodrome Forecast
Issued by NWS Sterling, VA

Home | Current Version | Previous Version | Text Only | Print | Product List | Glossary On
Versions: 1 2 3 4 5 6 7 8 9 10 11 12
000
FTUS41 KLWX 291100
TAFCHO
TAF
KCHO 291126Z 2912/3012 00000KT P6SM SCT090
     FM291600 08006KT P6SM FEW050 SCT250
     FM292100 14007KT P6SM FEW050 SCT250
     FM300000 00000KT P6SM SCT250
     FM300200 00000KT P6SM BKN090
     FM300900 VRB03KT 3SM BR BKN025=

USA.gov is the U.S. government's official web portal to all federal, state and local government web resources and services.